Time;durP1;ratioP1;P1;durP2;ratioP2;P2;SDS_P1;SDS_P2;PMS_P1;PMS_P2;Temp;Humidity;BMP_temperature;BMP_pressure;BME280_temperature;BME280_humidity;BME280_pressure;Samples;Min_cycle;Max_cycle;Signal;HPM_P1;HPM_P2
2023/03/29 04:22:34;;;;;;;2.40;1.10;;;;;;;4.49;100.00;100437.16;5089438;28;20336;-63
2023/03/29 04:24:59;;;;;;;1.35;0.90;;;;;;;4.52;100.00;100436.91;5088346;28;20037;-62
2023/03/29 04:27:44;;;;;;;1.27;1.17;;;;;;;4.63;100.00;100438.66;5068845;28;20504;-62
2023/03/29 04:30:21;;;;;;;2.28;1.30;;;;;;;4.68;100.00;100433.81;5084943;28;20103;-60
2023/03/29 04:33:10;;;;;;;3.85;1.30;;;;;;;4.79;100.00;100432.91;5069069;28;20044;-61
2023/03/29 04:35:37;;;;;;;1.77;1.33;;;;;;;4.83;100.00;100440.44;5067811;28;20094;-59
2023/03/29 04:38:08;;;;;;;2.10;1.27;;;;;;;4.84;100.00;100438.63;5067399;28;20049;-62
2023/03/29 04:40:34;;;;;;;3.58;1.90;;;;;;;4.93;100.00;100435.19;5067685;28;20071;-63
2023/03/29 04:43:26;;;;;;;2.58;1.40;;;;;;;5.01;100.00;100431.88;5044820;28;20053;-61
2023/03/29 04:45:58;;;;;;;2.47;1.60;;;;;;;4.99;100.00;100432.00;5067657;28;20036;-60
2023/03/29 04:48:46;;;;;;;4.15;1.90;;;;;;;5.06;100.00;100434.94;5039294;28;20052;-63
2023/03/29 04:51:12;;;;;;;2.60;1.73;;;;;;;5.17;100.00;100432.22;5084622;28;20048;-61
2023/03/29 04:53:39;;;;;;;1.65;1.45;;;;;;;5.17;100.00;100438.34;5067478;28;20445;-59
2023/03/29 04:56:05;;;;;;;2.83;1.70;;;;;;;5.22;100.00;100443.22;5067343;28;20098;-62
2023/03/29 04:59:00;;;;;;;1.92;1.40;;;;;;;5.23;100.00;100446.72;5031005;28;20406;-60
2023/03/29 05:01:25;;;;;;;2.58;1.65;;;;;;;5.26;100.00;100449.06;5084094;28;20033;-59
2023/03/29 05:03:59;;;;;;;2.63;1.75;;;;;;;5.29;100.00;100448.81;5068608;28;20033;-60
2023/03/29 05:06:33;;;;;;;3.03;2.00;;;;;;;5.31;100.00;100450.34;5067183;28;20033;-60
2023/03/29 05:08:59;;;;;;;1.40;1.27;;;;;;;5.35;100.00;100451.75;5066879;28;20047;-60
2023/03/29 05:11:32;;;;;;;2.63;1.48;;;;;;;5.40;100.00;100454.81;5067061;28;20037;-60
2023/03/29 05:14:01;;;;;;;2.95;1.80;;;;;;;5.42;100.00;100458.16;5067023;28;20040;-59
2023/03/29 05:16:33;;;;;;;2.17;1.58;;;;;;;5.43;100.00;100456.34;5066965;28;20037;-59
2023/03/29 05:18:59;;;;;;;3.55;2.53;;;;;;;5.45;100.00;100454.41;5066733;28;20067;-60
2023/03/29 05:21:27;;;;;;;3.75;1.58;;;;;;;5.50;100.00;100456.66;5083600;28;20430;-62
2023/03/29 05:23:53;;;;;;;1.05;0.95;;;;;;;5.52;100.00;100459.97;5083722;28;20032;-60
2023/03/29 05:26:38;;;;;;;5.25;2.72;;;;;;;5.59;100.00;100467.22;5068233;28;20090;-61
2023/03/29 05:29:06;;;;;;;1.88;1.27;;;;;;;5.56;100.00;100456.94;5066438;28;20037;-59
2023/03/29 05:31:31;;;;;;;2.47;1.53;;;;;;;5.59;100.00;100455.81;5065969;28;20452;-61
2023/03/29 05:33:57;;;;;;;3.15;2.03;;;;;;;5.64;100.00;100457.09;5069835;28;20026;-61
2023/03/29 05:36:23;;;;;;;2.25;1.52;;;;;;;5.64;100.00;100454.44;5053307;28;20394;-61
2023/03/29 05:38:49;;;;;;;2.38;1.48;;;;;;;5.73;100.00;100448.34;5053063;28;20413;-65
2023/03/29 05:41:16;;;;;;;2.45;1.63;;;;;;;5.74;100.00;100451.84;5053146;28;20123;-60
2023/03/29 05:44:01;;;;;;;2.33;1.25;;;;;;;5.77;100.00;100456.00;5053225;28;20098;-50
2023/03/29 05:46:27;;;;;;;2.20;1.67;;;;;;;5.81;100.00;100449.47;5052077;28;20040;-66
2023/03/29 05:48:55;;;;;;;3.65;1.70;;;;;;;5.78;100.00;100455.84;5052682;28;20040;-66
2023/03/29 05:51:32;;;;;;;2.70;1.88;;;;;;;5.81;100.00;100450.31;5054620;28;20091;-66
2023/03/29 05:53:57;;;;;;;1.45;1.23;;;;;;;5.85;100.00;100448.22;5054356;28;20044;-66
2023/03/29 05:56:23;;;;;;;1.23;1.10;;;;;;;5.92;100.00;100449.34;5054220;28;20036;-66
2023/03/29 05:58:52;;;;;;;2.13;1.60;;;;;;;5.93;100.00;100451.03;5052836;28;20037;-66
2023/03/29 06:01:18;;;;;;;4.30;1.60;;;;;;;5.91;100.00;100450.34;5053992;28;20055;-65
2023/03/29 06:04:11;;;;;;;3.08;1.65;;;;;;;5.94;100.00;100461.50;5052042;28;20095;-66
2023/03/29 06:06:43;;;;;;;1.92;1.38;;;;;;;5.97;100.00;100463.00;5069551;28;20029;-66
2023/03/29 06:09:09;;;;;;;1.80;1.52;;;;;;;6.04;100.00;100453.53;5069338;28;20098;-67
2023/03/29 06:11:45;;;;;;;2.35;1.52;;;;;;;6.11;100.00;100451.19;5054049;28;20025;-66
2023/03/29 06:14:37;;;;;;;1.38;1.23;;;;;;;6.20;100.00;100453.84;5042317;28;20544;-66
2023/03/29 06:17:23;;;;;;;1.65;1.17;;;;;;;6.29;100.00;100451.31;5053379;28;20510;-66
2023/03/29 06:19:48;;;;;;;1.92;1.20;;;;;;;6.35;100.00;100453.41;5052637;28;20041;-66
2023/03/29 06:22:15;;;;;;;1.60;1.35;;;;;;;6.41;100.00;100456.31;5052713;28;20438;-66
2023/03/29 06:24:41;;;;;;;1.83;1.48;;;;;;;6.44;100.00;100456.03;5069166;28;20179;-66
2023/03/29 06:27:14;;;;;;;1.70;1.50;;;;;;;6.52;100.00;100448.22;5052418;28;20511;-65
2023/03/29 06:29:40;;;;;;;2.05;1.45;;;;;;;6.60;100.00;100458.09;5052473;28;20151;-66
2023/03/29 06:32:05;;;;;;;3.45;1.58;;;;;;;6.64;100.00;100451.53;5052397;28;20044;-66
2023/03/29 06:34:49;;;;;;;2.05;1.73;;;;;;;6.73;100.00;100457.78;5052254;28;20094;-66
2023/03/29 06:37:34;;;;;;;2.88;2.03;;;;;;;6.78;100.00;100453.75;5068605;28;20033;-66
2023/03/29 06:40:10;;;;;;;2.80;1.83;;;;;;;6.84;100.00;100452.31;5069165;28;20048;-65
2023/03/29 06:42:43;;;;;;;2.65;1.60;;;;;;;6.90;100.00;100456.19;5054197;28;20518;-64
2023/03/29 06:45:34;;;;;;;2.55;1.77;;;;;;;6.95;100.00;100454.78;5052085;28;20409;-64
2023/03/29 06:48:03;;;;;;;2.28;1.60;;;;;;;6.97;99.03;100452.81;5051878;28;20456;-64
2023/03/29 06:50:30;;;;;;;4.38;2.13;;;;;;;7.09;98.14;100453.47;5035467;28;20025;-64
2023/03/29 06:53:16;;;;;;;2.60;2.10;;;;;;;7.18;98.66;100465.88;5052779;28;20056;-65
2023/03/29 06:55:45;;;;;;;4.43;2.22;;;;;;;7.21;100.00;100465.56;5051752;28;20123;-65
2023/03/29 06:58:32;;;;;;;5.90;3.00;;;;;;;7.31;98.73;100468.19;5051674;28;20040;-65
2023/03/29 07:01:05;;;;;;;4.43;2.72;;;;;;;7.40;99.17;100477.06;5051801;28;20110;-64
2023/03/29 07:03:48;;;;;;;3.08;2.05;;;;;;;7.43;97.23;100476.75;5051821;28;20037;-64
2023/03/29 07:06:19;;;;;;;2.97;1.92;;;;;;;7.53;97.88;100480.19;5051609;28;20065;-65
2023/03/29 07:08:50;;;;;;;2.30;1.60;;;;;;;7.59;99.36;100482.25;5051314;28;20045;-64
2023/03/29 07:11:26;;;;;;;3.40;2.05;;;;;;;7.66;98.72;100482.50;5051698;28;20536;-65
2023/03/29 07:13:55;;;;;;;2.35;1.63;;;;;;;7.67;98.20;100487.66;5051758;28;20100;-65
2023/03/29 07:16:20;;;;;;;3.22;1.70;;;;;;;7.78;98.97;100494.56;5052762;28;20029;-65
2023/03/29 07:19:03;;;;;;;2.58;1.95;;;;;;;7.82;97.59;100494.13;5051175;28;20029;-65
2023/03/29 07:21:47;;;;;;;4.07;2.30;;;;;;;7.85;95.91;100496.47;5052590;28;20129;-63
2023/03/29 07:24:13;;;;;;;2.80;2.05;;;;;;;7.93;96.26;100494.88;5051465;28;20128;-65
2023/03/29 07:26:40;;;;;;;2.55;2.08;;;;;;;7.98;96.01;100496.13;5051238;28;20029;-65
2023/03/29 07:29:06;;;;;;;2.28;1.58;;;;;;;8.04;99.68;100498.16;5052270;28;20406;-64
2023/03/29 07:31:34;;;;;;;2.75;1.55;;;;;;;8.04;99.59;100503.47;5051215;28;20044;-64
2023/03/29 07:34:19;;;;;;;2.00;1.40;;;;;;;8.04;97.51;100495.50;5052331;28;20067;-63
2023/03/29 07:36:46;;;;;;;2.08;1.38;;;;;;;8.07;96.11;100508.47;5052591;28;20482;-65
2023/03/29 07:39:12;;;;;;;2.50;1.40;;;;;;;8.12;95.51;100500.88;5050949;28;20565;-65
2023/03/29 07:41:39;;;;;;;1.77;1.52;;;;;;;8.19;94.21;100497.63;5034761;28;20028;-65
2023/03/29 07:44:10;;;;;;;4.80;2.08;;;;;;;8.25;93.39;100489.91;5067717;28;20581;-65
2023/03/29 07:46:37;;;;;;;2.35;1.88;;;;;;;8.33;93.01;100489.97;5050926;28;20037;-65
2023/03/29 07:49:03;;;;;;;3.58;1.55;;;;;;;8.43;92.48;100495.25;5052015;28;20037;-63
2023/03/29 07:51:29;;;;;;;4.47;1.90;;;;;;;8.43;89.17;100485.44;5052105;28;20095;-64
2023/03/29 07:54:05;;;;;;;3.72;2.15;;;;;;;8.55;89.83;100495.84;5050835;28;20076;-64
2023/03/29 07:56:46;;;;;;;3.28;2.15;;;;;;;8.65;89.79;100496.56;5067255;28;20036;-64
2023/03/29 07:59:22;;;;;;;;;;;;;;;8.67;88.30;100484.81;5051246;28;20369;-65
2023/03/29 08:02:04;;;;;;;3.75;1.98;;;;;;;8.76;87.10;100491.00;5050888;28;19923;-64
2023/03/29 08:04:33;;;;;;;2.67;1.80;;;;;;;8.83;86.75;100500.03;5050723;28;20033;-64
2023/03/29 08:07:27;;;;;;;2.83;1.85;;;;;;;8.95;86.98;100493.47;5051368;28;20048;-64
2023/03/29 08:10:23;;;;;;;2.80;2.10;;;;;;;9.02;86.91;100483.03;5050688;28;20076;-64
2023/03/29 08:12:52;;;;;;;2.45;1.98;;;;;;;9.05;86.72;100481.88;5051794;28;20142;-65
2023/03/29 08:15:22;;;;;;;3.40;2.22;;;;;;;9.18;87.51;100487.59;5050709;28;20090;-64
2023/03/29 08:17:47;;;;;;;3.50;2.20;;;;;;;9.29;86.98;100489.16;5050450;28;20447;-64
2023/03/29 08:20:16;;;;;;;3.20;2.13;;;;;;;9.38;86.90;100493.50;5067063;28;20490;-63
2023/03/29 08:22:45;;;;;;;3.20;1.85;;;;;;;9.46;85.70;100490.91;5050661;28;20462;-63
2023/03/29 08:25:19;;;;;;;3.83;2.42;;;;;;;9.55;82.80;100489.09;5051677;28;20554;-63
2023/03/29 08:27:48;;;;;;;5.40;1.88;;;;;;;9.60;77.64;100487.63;5050156;28;20132;-64
2023/03/29 08:30:22;;;;;;;3.22;2.22;;;;;;;9.70;76.01;100467.03;5050359;28;20049;-63
2023/03/29 08:32:49;;;;;;;2.85;2.15;;;;;;;9.80;77.38;100466.91;5050438;28;20029;-62
2023/03/29 08:35:16;;;;;;;3.20;2.28;;;;;;;9.95;78.96;100473.25;5050272;28;20115;-64
2023/03/29 08:37:51;;;;;;;5.75;2.33;;;;;;;10.04;75.43;100468.75;5066794;28;20037;-64
2023/03/29 08:40:26;;;;;;;4.72;2.55;;;;;;;10.18;74.67;100464.63;5050378;28;20044;-65
2023/03/29 08:43:25;;;;;;;5.00;2.25;;;;;;;10.31;74.77;100459.69;5050109;28;20124;-63
2023/03/29 08:46:34;;;;;;;;;;;;;;;10.40;71.39;100464.00;5048749;28;20072;-63
2023/03/29 08:49:09;;;;;;;4.68;1.83;;;;;;;10.62;72.57;100462.47;5050134;28;19917;-63
2023/03/29 08:51:41;;;;;;;2.25;1.65;;;;;;;10.75;68.98;100445.97;5066907;28;20037;-62
2023/03/29 08:54:14;;;;;;;2.80;1.65;;;;;;;11.02;69.09;100447.41;5050300;28;20029;-63
2023/03/29 08:57:22;;;;;;;1.98;1.75;;;;;;;11.22;66.91;100447.88;5051272;28;20063;-63
2023/03/29 08:59:57;;;;;;;3.25;2.00;;;;;;;11.35;65.99;100453.47;5050253;28;20128;-62
2023/03/29 09:02:26;;;;;;;1.50;1.13;;;;;;;11.43;61.83;100449.94;5051442;28;20128;-61
2023/03/29 09:05:07;;;;;;;1.98;1.40;;;;;;;11.47;61.26;100452.06;5050139;28;20033;-65
2023/03/29 09:07:40;;;;;;;2.25;1.40;;;;;;;11.65;62.32;100452.66;5050898;28;20390;-63
2023/03/29 09:10:13;;;;;;;3.67;1.88;;;;;;;11.76;65.37;100437.25;5053831;28;20044;-64
2023/03/29 09:12:58;;;;;;;3.00;1.95;;;;;;;11.88;62.81;100441.22;5053864;28;20036;-64
2023/03/29 09:15:35;;;;;;;4.60;2.08;;;;;;;11.93;64.02;100442.34;5053687;28;20044;-63
2023/03/29 09:18:56;;;;;;;2.80;1.50;;;;;;;12.16;59.85;100445.00;5053544;28;20119;-62
2023/03/29 09:21:28;;;;;;;2.72;1.58;;;;;;;12.46;58.70;100447.78;5043627;28;20045;-63
2023/03/29 09:24:07;;;;;;;2.13;1.67;;;;;;;12.48;60.72;100441.25;5053664;28;20490;-62
2023/03/29 09:26:51;;;;;;;3.37;1.40;;;;;;;12.60;57.74;100438.97;5053616;28;20401;-63
2023/03/29 09:29:53;;;;;;;1.50;1.20;;;;;;;12.59;58.39;100431.16;5053501;28;20081;-63
2023/03/29 09:33:17;;;;;;;2.17;1.45;;;;;;;12.74;56.75;100435.47;5053456;28;20403;-62
2023/03/29 09:36:08;;;;;;;2.20;1.50;;;;;;;12.90;55.29;100434.47;5034473;28;20402;-63
2023/03/29 09:38:43;;;;;;;;;;;;;;;13.08;57.16;100430.59;5053587;28;20167;-64
2023/03/29 09:41:20;;;;;;;4.05;1.55;;;;;;;13.36;56.51;100431.63;5053330;28;19981;-64
2023/03/29 09:43:49;;;;;;;2.40;1.67;;;;;;;13.79;55.54;100435.22;5053353;28;20041;-63
2023/03/29 09:46:28;;;;;;;2.35;1.55;;;;;;;13.95;52.78;100428.78;5053290;28;20497;-63
2023/03/29 09:48:55;;;;;;;2.75;1.48;;;;;;;14.07;52.61;100427.25;5052889;28;20402;-63
2023/03/29 09:51:25;;;;;;;1.48;1.17;;;;;;;14.14;52.96;100421.97;5053223;28;20102;-63
2023/03/29 09:53:51;;;;;;;2.28;1.50;;;;;;;14.12;52.74;100422.16;5054548;28;20037;-64
2023/03/29 09:56:33;;;;;;;1.50;1.25;;;;;;;14.15;52.65;100428.16;5053144;28;20041;-63
2023/03/29 09:59:09;;;;;;;3.70;1.77;;;;;;;14.21;51.84;100435.41;5052764;28;20056;-62
2023/03/29 10:01:37;;;;;;;3.33;1.63;;;;;;;14.22;53.30;100434.44;5052975;28;20497;-61
2023/03/29 10:04:07;;;;;;;1.77;1.40;;;;;;;14.24;53.25;100427.00;5052939;28;20037;-63
2023/03/29 10:06:34;;;;;;;2.00;1.10;;;;;;;14.35;51.61;100418.47;5052795;28;20119;-64
2023/03/29 10:09:00;;;;;;;4.32;1.27;;;;;;;14.55;53.82;100426.69;5069321;28;20552;-64
2023/03/29 10:11:34;;;;;;;2.08;1.38;;;;;;;14.73;51.84;100416.28;5052680;28;20050;-64
2023/03/29 10:14:31;;;;;;;1.63;1.20;;;;;;;14.95;55.48;100425.09;5054073;28;20033;-64
2023/03/29 10:16:56;;;;;;;;;;;;;;;15.06;54.55;100426.38;5054075;28;20083;-63
2023/03/29 10:19:22;;;;;;;2.95;1.10;;;;;;;15.11;50.33;100413.22;5053748;28;19916;-63
2023/03/29 10:21:51;;;;;;;1.27;0.98;;;;;;;15.35;52.62;100407.34;5053795;28;20025;-63
2023/03/29 10:24:25;;;;;;;1.58;0.98;;;;;;;15.77;49.70;100405.44;5053826;28;20033;-64
2023/03/29 10:26:54;;;;;;;2.92;1.38;;;;;;;16.07;47.72;100397.03;5053614;28;20063;-64
2023/03/29 10:29:21;;;;;;;2.40;1.33;;;;;;;16.12;46.42;100395.38;5053604;28;20033;-64
2023/03/29 10:31:47;;;;;;;2.35;1.10;;;;;;;16.39;45.89;100380.06;5053650;28;20502;-64
2023/03/29 10:34:15;;;;;;;1.30;0.80;;;;;;;16.65;46.55;100383.75;5053522;28;20098;-64
2023/03/29 10:36:44;;;;;;;2.08;0.90;;;;;;;16.88;44.80;100373.38;5053476;28;20039;-64
2023/03/29 10:39:13;;;;;;;2.00;1.30;;;;;;;17.37;44.84;100371.97;5053340;28;20087;-64
2023/03/29 10:41:39;;;;;;;1.75;1.23;;;;;;;18.02;44.47;100369.13;5053495;28;20029;-64
2023/03/29 10:44:04;;;;;;;2.83;1.27;;;;;;;18.22;43.29;100366.25;5053523;28;20512;-64
2023/03/29 10:46:41;;;;;;;1.73;1.23;;;;;;;18.41;41.84;100363.38;5053338;28;20091;-64
2023/03/29 10:49:18;;;;;;;2.38;1.05;;;;;;;18.93;42.70;100372.03;5053099;28;20064;-64
2023/03/29 10:51:45;;;;;;;;;;;;;;;18.79;42.77;100370.53;5053639;28;20033;-64
2023/03/29 10:54:14;;;;;;;1.75;1.15;;;;;;;18.87;42.36;100355.91;5053304;28;19913;-64
2023/03/29 10:56:43;;;;;;;2.13;1.35;;;;;;;18.17;44.22;100361.53;5053073;28;20405;-64
2023/03/29 10:59:21;;;;;;;1.20;0.90;;;;;;;18.23;41.86;100357.13;5052897;28;20090;-64
2023/03/29 11:02:07;;;;;;;1.42;1.17;;;;;;;18.11;39.75;100357.84;5053232;28;20039;-64
2023/03/29 11:04:55;;;;;;;1.23;0.90;;;;;;;17.93;39.98;100360.50;5053138;28;20083;-64
2023/03/29 11:07:31;;;;;;;1.75;1.15;;;;;;;17.78;41.06;100359.94;5052693;28;20287;-64
2023/03/29 11:10:15;;;;;;;1.95;0.90;;;;;;;17.82;41.33;100348.53;5052927;28;20044;-64
2023/03/29 11:13:00;;;;;;;1.90;1.17;;;;;;;17.81;40.23;100340.66;5052684;28;20037;-64
2023/03/29 11:15:35;;;;;;;1.20;1.00;;;;;;;17.72;41.90;100352.75;5052732;28;20037;-63
2023/03/29 11:18:38;;;;;;;1.17;0.80;;;;;;;17.60;41.89;100352.56;5052395;28;20474;-63
2023/03/29 11:21:18;;;;;;;1.65;0.88;;;;;;;17.72;42.46;100347.34;5052591;28;20033;-63
2023/03/29 11:24:03;;;;;;;1.48;0.93;;;;;;;17.70;40.39;100339.47;5052712;28;20072;-64
2023/03/29 11:27:10;;;;;;;3.45;1.40;;;;;;;17.87;40.24;100350.59;5052569;28;20037;-64
2023/03/29 11:30:00;;;;;;;1.20;0.82;;;;;;;18.37;42.00;100347.88;5052601;28;20527;-64
2023/03/29 11:32:40;;;;;;;1.50;1.10;;;;;;;18.64;40.17;100349.25;5052428;28;20053;-64
2023/03/29 11:35:26;;;;;;;0.93;0.70;;;;;;;18.80;39.83;100349.75;5052531;28;20032;-64
2023/03/29 11:38:21;;;;;;;2.20;0.90;;;;;;;18.48;40.42;100339.06;5052178;28;20040;-64
2023/03/29 11:41:07;;;;;;;2.55;1.08;;;;;;;18.30;39.87;100350.63;5052446;28;20435;-64
2023/03/29 11:43:37;;;;;;;0.93;0.70;;;;;;;18.33;39.43;100354.78;5052334;28;20039;-64
2023/03/29 11:46:45;;;;;;;1.73;1.00;;;;;;;17.94;39.79;100356.75;5052505;28;20041;-64
2023/03/29 11:49:21;;;;;;;1.20;0.88;;;;;;;17.77;41.80;100350.22;5009991;28;20045;-64
2023/03/29 11:52:05;;;;;;;1.50;1.02;;;;;;;17.48;41.47;100349.75;5010367;28;20038;-64
2023/03/29 11:54:43;;;;;;;2.65;0.98;;;;;;;17.22;41.68;100339.13;5039138;28;20052;-64
2023/03/29 11:58:07;;;;;;;1.17;1.00;;;;;;;17.00;43.17;100336.72;5051834;28;20037;-63
2023/03/29 12:00:42;;;;;;;2.38;1.13;;;;;;;17.07;43.29;100329.44;4990350;28;20174;-64
2023/03/29 12:03:38;;;;;;;2.40;1.10;;;;;;;16.94;41.92;100344.81;5043172;28;20075;-64
2023/03/29 12:06:23;;;;;;;1.20;1.00;;;;;;;17.02;43.85;100347.28;5051934;28;20029;-65
2023/03/29 12:08:51;;;;;;;3.70;1.10;;;;;;;17.05;44.79;100334.22;5051917;28;20040;-65
2023/03/29 12:11:53;;;;;;;2.03;1.23;;;;;;;17.24;44.01;100337.03;5051910;28;20033;-64
2023/03/29 12:14:34;;;;;;;3.03;1.00;;;;;;;17.26;43.47;100343.03;5019172;28;20072;-65
2023/03/29 12:17:03;;;;;;;2.10;1.05;;;;;;;17.24;42.98;100337.03;5031683;28;20045;-65
2023/03/29 12:19:33;;;;;;;2.67;0.93;;;;;;;17.07;43.58;100334.81;5031917;28;20132;-64
2023/03/29 12:22:00;;;;;;;1.05;0.90;;;;;;;17.03;45.17;100332.78;5031940;28;20029;-64
2023/03/29 12:24:31;;;;;;;1.65;0.85;;;;;;;17.12;45.44;100319.91;5030677;28;20091;-64
2023/03/29 12:27:02;;;;;;;1.77;1.10;;;;;;;17.07;45.88;100328.63;5031592;28;20051;-65
2023/03/29 12:30:00;;;;;;;1.05;0.95;;;;;;;16.95;46.26;100336.56;5031818;28;20033;-65
2023/03/29 12:32:44;;;;;;;2.20;1.17;;;;;;;16.90;47.21;100338.22;5031764;28;20107;-65
2023/03/29 12:36:05;;;;;;;2.13;0.98;;;;;;;17.02;46.28;100337.34;5031555;28;20048;-64
2023/03/29 12:38:52;;;;;;;1.88;1.30;;;;;;;17.07;47.32;100342.06;5031415;28;20540;-64
2023/03/29 12:41:37;;;;;;;2.78;1.17;;;;;;;17.07;46.97;100345.59;5031996;28;20048;-64
2023/03/29 12:44:22;;;;;;;1.65;1.38;;;;;;;16.99;46.63;100345.81;5035648;28;20186;-64
2023/03/29 12:46:53;;;;;;;2.55;1.20;;;;;;;16.79;46.75;100347.75;5035719;28;20064;-64
2023/03/29 12:49:27;;;;;;;2.67;1.25;;;;;;;16.46;49.02;100359.38;5035507;28;20109;-64
2023/03/29 12:51:57;;;;;;;1.20;0.77;;;;;;;16.42;49.85;100352.75;5035597;28;20045;-63
2023/03/29 12:54:27;;;;;;;1.52;0.98;;;;;;;16.29;50.47;100342.03;5034369;28;20033;-64
2023/03/29 12:56:56;;;;;;;1.67;1.00;;;;;;;16.48;51.12;100341.16;5035348;28;20076;-63
2023/03/29 12:59:38;;;;;;;1.25;0.90;;;;;;;16.41;49.47;100345.72;5035336;28;20037;-64
2023/03/29 13:02:13;;;;;;;5.55;1.17;;;;;;;16.29;50.24;100352.78;5035475;28;20061;-66
2023/03/29 13:04:41;;;;;;;1.38;0.88;;;;;;;16.24;51.69;100360.66;5035300;28;20037;-65
2023/03/29 13:07:22;;;;;;;2.03;1.20;;;;;;;16.04;52.35;100354.44;5034949;28;20045;-66
2023/03/29 13:10:02;;;;;;;1.17;0.90;;;;;;;16.01;54.17;100355.69;5035321;28;20492;-66
2023/03/29 13:12:33;;;;;;;1.05;0.75;;;;;;;15.86;57.68;100363.94;5035129;28;20121;-66
2023/03/29 13:15:01;;;;;;;1.20;1.00;;;;;;;15.61;63.68;100360.97;5035127;28;20037;-66
2023/03/29 13:17:49;;;;;;;1.52;0.90;;;;;;;15.43;66.03;100369.56;5034798;28;20122;-66
2023/03/29 13:20:30;;;;;;;1.25;0.95;;;;;;;15.09;68.12;100361.63;5035008;28;20186;-66
2023/03/29 13:23:38;;;;;;;1.05;0.88;;;;;;;14.85;74.23;100355.72;5035250;28;20041;-66
2023/03/29 13:26:41;;;;;;;1.73;1.10;;;;;;;14.83;74.80;100346.22;5031960;28;20475;-65
2023/03/29 13:29:30;;;;;;;2.45;1.15;;;;;;;14.84;75.55;100335.28;5033412;28;20034;-66
2023/03/29 13:32:01;;;;;;;1.92;1.30;;;;;;;14.89;75.36;100329.34;5034857;28;20040;-65
2023/03/29 13:34:49;;;;;;;1.08;0.88;;;;;;;15.24;72.46;100338.13;5034857;28;20095;-66
2023/03/29 13:37:31;;;;;;;3.30;1.25;;;;;;;15.10;75.57;100325.72;5034461;28;20544;-66
2023/03/29 13:39:56;;;;;;;2.42;0.90;;;;;;;15.30;71.43;100331.16;5034667;28;20509;-66
2023/03/29 13:42:41;;;;;;;1.48;0.90;;;;;;;15.11;74.21;100327.34;5034703;28;20038;-66
2023/03/29 13:45:15;;;;;;;1.60;1.10;;;;;;;15.02;72.39;100325.91;5034661;28;20519;-65
2023/03/29 13:47:43;;;;;;;1.50;1.00;;;;;;;15.20;71.32;100326.16;5034335;28;20029;-65
2023/03/29 13:50:18;;;;;;;1.15;0.85;;;;;;;15.11;72.25;100324.69;5034647;28;20037;-65
2023/03/29 13:53:19;;;;;;;1.05;0.90;;;;;;;15.18;69.98;100320.97;5034353;28;20038;-65
2023/03/29 13:55:49;;;;;;;1.75;1.08;;;;;;;15.05;70.03;100320.13;5034405;28;20085;-65
2023/03/29 13:58:31;;;;;;;3.15;1.20;;;;;;;15.07;72.29;100316.22;5034136;28;20037;-65
2023/03/29 14:01:07;;;;;;;1.77;1.00;;;;;;;15.18;70.22;100325.53;5034314;28;20041;-64
2023/03/29 14:03:43;;;;;;;1.65;1.23;;;;;;;15.19;67.66;100317.28;5034311;28;20083;-67
2023/03/29 14:06:12;;;;;;;1.70;0.98;;;;;;;15.30;68.21;100310.50;5034299;28;20479;-65
2023/03/29 14:08:40;;;;;;;1.98;1.02;;;;;;;15.30;66.51;100305.13;5033881;28;20030;-65
2023/03/29 14:11:11;;;;;;;1.55;1.13;;;;;;;15.33;66.26;100294.00;5033978;28;20104;-64
2023/03/29 14:13:37;;;;;;;2.47;1.00;;;;;;;15.35;68.15;100296.47;5034160;28;20087;-64
2023/03/29 14:16:09;;;;;;;2.03;1.33;;;;;;;15.32;65.01;100294.19;5034035;28;20104;-65
2023/03/29 14:18:39;;;;;;;1.40;0.93;;;;;;;15.37;65.20;100292.56;5033749;28;20065;-65
2023/03/29 14:21:06;;;;;;;1.77;0.77;;;;;;;15.36;65.79;100287.41;5033953;28;20041;-65
2023/03/29 14:23:35;;;;;;;1.75;1.10;;;;;;;15.43;64.80;100282.88;5033947;28;20113;-65
2023/03/29 14:26:14;;;;;;;1.33;0.90;;;;;;;15.44;65.04;100276.47;5033773;28;20418;-65
2023/03/29 14:28:50;;;;;;;4.22;1.27;;;;;;;15.36;63.53;100271.28;5033460;28;20071;-66
2023/03/29 14:31:21;;;;;;;2.03;1.10;;;;;;;15.33;63.28;100261.81;5033908;28;20056;-66
2023/03/29 14:33:51;;;;;;;1.42;1.13;;;;;;;15.19;65.00;100263.63;5033638;28;20037;-65
2023/03/29 14:36:17;;;;;;;5.45;1.50;;;;;;;15.18;65.05;100261.13;5033658;28;20083;-66
2023/03/29 14:39:09;;;;;;;3.17;1.45;;;;;;;15.21;66.05;100252.69;5033539;28;20065;-66
2023/03/29 14:41:36;;;;;;;2.15;1.23;;;;;;;15.38;66.04;100259.31;5033048;28;20041;-66
2023/03/29 14:44:04;;;;;;;2.67;1.38;;;;;;;15.22;65.80;100251.66;5033489;28;20033;-66
2023/03/29 14:46:32;;;;;;;;;;;;;;;15.36;66.18;100258.69;5033869;28;20037;-66
2023/03/29 14:48:58;;;;;;;3.55;1.48;;;;;;;15.45;66.37;100249.44;5033066;28;19955;-65
2023/03/29 14:51:29;;;;;;;4.70;1.35;;;;;;;15.48;67.21;100237.44;5033393;28;20033;-66
2023/03/29 14:53:57;;;;;;;2.65;1.60;;;;;;;15.52;65.90;100244.06;5033453;28;20048;-66
2023/03/29 14:56:25;;;;;;;5.22;1.50;;;;;;;15.51;64.02;100230.84;5033099;28;20021;-65
2023/03/29 14:58:54;;;;;;;2.30;1.40;;;;;;;15.50;65.65;100229.19;5032926;28;20038;-66
2023/03/29 15:01:22;;;;;;;5.18;1.77;;;;;;;15.50;65.75;100218.44;5033180;28;20057;-66
2023/03/29 15:03:51;;;;;;;;;;;;;;;15.53;64.82;100218.88;5033659;28;20533;-53
2023/03/29 15:06:17;;;;;;;4.20;1.38;;;;;;;15.60;64.59;100208.97;5032269;28;19920;-51
2023/03/29 15:08:44;;;;;;;1.88;1.38;;;;;;;15.66;65.29;100218.09;5032827;28;20088;-56
2023/03/29 15:11:13;;;;;;;2.97;1.48;;;;;;;15.78;64.98;100205.69;5032866;28;20069;-66
2023/03/29 15:13:40;;;;;;;1.38;1.02;;;;;;;15.86;64.63;100196.59;5033009;28;20041;-66
2023/03/29 15:16:07;;;;;;;3.92;1.50;;;;;;;15.86;63.76;100186.66;5032915;28;20041;-65
2023/03/29 15:18:38;;;;;;;2.80;1.48;;;;;;;15.87;63.64;100187.50;5032569;28;20041;-66
2023/03/29 15:21:06;;;;;;;2.55;1.50;;;;;;;15.90;62.93;100182.50;5032781;28;20037;-65
2023/03/29 15:23:56;;;;;;;1.75;1.27;;;;;;;15.99;63.77;100185.81;5032834;28;20033;-65
2023/03/29 15:26:30;;;;;;;3.35;1.30;;;;;;;15.98;64.97;100182.31;5047997;28;20045;-65
2023/03/29 15:29:22;;;;;;;3.25;1.42;;;;;;;16.09;63.24;100177.31;5032539;28;20494;-66
2023/03/29 15:31:58;;;;;;;3.35;1.30;;;;;;;16.00;63.35;100182.91;5032686;28;20505;-65
2023/03/29 15:34:31;;;;;;;2.83;1.60;;;;;;;15.92;64.35;100185.81;5032561;28;20045;-65
2023/03/29 15:36:56;;;;;;;2.05;1.38;;;;;;;15.95;65.38;100176.50;5032271;28;20119;-65
2023/03/29 15:39:22;;;;;;;4.45;1.63;;;;;;;15.91;64.72;100181.50;5032411;28;20065;-65
2023/03/29 15:41:50;;;;;;;2.60;1.60;;;;;;;15.86;64.33;100169.72;5032446;28;20483;-66
2023/03/29 15:44:20;;;;;;;3.72;1.60;;;;;;;15.84;65.16;100174.47;5032572;28;20064;-66
2023/03/29 15:46:46;;;;;;;5.25;2.45;;;;;;;15.86;65.56;100158.97;5032357;28;20033;-65
2023/03/29 15:49:13;;;;;;;2.30;1.17;;;;;;;15.90;65.96;100160.19;5032135;28;20530;-66
2023/03/29 15:51:39;;;;;;;2.43;1.50;;;;;;;15.97;66.50;100155.63;5032421;28;20038;-66
2023/03/29 15:54:05;;;;;;;2.55;1.30;;;;;;;15.93;66.93;100152.56;5032266;28;20038;-66
2023/03/29 15:56:36;;;;;;;3.95;1.58;;;;;;;15.97;65.73;100153.81;5032174;28;20087;-65
2023/03/29 15:59:03;;;;;;;1.92;1.30;;;;;;;15.97;66.40;100145.75;5032070;28;20073;-66
2023/03/29 16:01:38;;;;;;;3.67;1.45;;;;;;;15.98;68.49;100146.56;5032149;28;20108;-65
2023/03/29 16:04:10;;;;;;;2.60;1.40;;;;;;;15.95;67.09;100142.41;5032204;28;20547;-65
2023/03/29 16:06:36;;;;;;;3.90;1.45;;;;;;;15.98;65.72;100142.00;5032262;28;20391;-66
2023/03/29 16:09:02;;;;;;;4.68;1.40;;;;;;;15.91;65.17;100143.91;5031855;28;20112;-66
2023/03/29 16:11:28;;;;;;;2.20;1.45;;;;;;;15.87;65.18;100139.97;5032005;28;20056;-66
2023/03/29 16:13:55;;;;;;;1.90;1.27;;;;;;;15.97;64.04;100134.13;5032076;28;20061;-66
2023/03/29 16:16:21;;;;;;;3.70;1.38;;;;;;;15.65;65.88;100135.88;5031780;28;20458;-65
2023/03/29 16:18:46;;;;;;;2.10;1.52;;;;;;;15.75;66.07;100136.28;5030762;28;20037;-66
2023/03/29 16:21:14;;;;;;;3.05;1.48;;;;;;;15.78;65.52;100119.75;5031884;28;20045;-66
2023/03/29 16:23:40;;;;;;;;;;;;;;;15.64;65.11;100134.22;5032346;28;20079;-65
2023/03/29 16:26:06;;;;;;;1.98;1.20;;;;;;;15.60;65.08;100122.22;5031692;28;19923;-65
2023/03/29 16:28:31;;;;;;;5.68;2.22;;;;;;;15.62;67.08;100117.50;5046850;28;20037;-66